Time;durP1;ratioP1;P1;durP2;ratioP2;P2;SDS_P1;SDS_P2;PMS_P1;PMS_P2;Temp;Humidity;BMP_temperature;BMP_pressure;BME280_temperature;BME280_humidity;BME280_pressure;Samples;Min_cycle;Max_cycle;Signal;HPM_P1;HPM_P2
2022/03/12 00:00:56;;;;;;;10.80;4.32;;;;;;;;;;5062579;28;20063;-50
2022/03/12 00:03:25;;;;;;;11.18;4.60;;;;;;;;;;5069080;28;20063;-51
2022/03/12 00:05:54;;;;;;;10.90;4.88;;;;;;;;;;5062953;28;20163;-52
2022/03/12 00:08:22;;;;;;;14.55;5.05;;;;;;;;;;5069638;28;20097;-55
2022/03/12 00:10:51;;;;;;;10.05;4.57;;;;;;;;;;5069919;28;20475;-52
2022/03/12 00:13:19;;;;;;;15.82;5.18;;;;;;;;;;5088309;28;20083;-55
2022/03/12 00:15:47;;;;;;;9.43;3.90;;;;;;;;;;5068623;28;20063;-53
2022/03/12 00:18:20;;;;;;;13.40;4.78;;;;;;;;;;5070346;28;20059;-53
2022/03/12 00:20:48;;;;;;;15.05;4.93;;;;;;;;;;5064665;28;20056;-52
2022/03/12 00:23:18;;;;;;;14.50;4.80;;;;;;;;;;5071576;28;20056;-53
2022/03/12 00:25:48;;;;;;;13.60;4.88;;;;;;;;;;5059187;28;20064;-55
2022/03/12 00:28:15;;;;;;;11.95;4.82;;;;;;;;;;5068228;28;20056;-52
2022/03/12 00:30:45;;;;;;;12.57;4.45;;;;;;;;;;5062152;28;20048;-53
2022/03/12 00:33:12;;;;;;;10.57;4.88;;;;;;;;;;5068210;28;20052;-55
2022/03/12 00:35:39;;;;;;;11.95;4.55;;;;;;;;;;5058125;28;20056;-57
2022/03/12 00:38:07;;;;;;;11.52;4.43;;;;;;;;;;5052201;28;20056;-52
2022/03/12 00:40:37;;;;;;;12.70;5.18;;;;;;;;;;5046148;28;20068;-60
2022/03/12 00:43:08;;;;;;;9.23;4.00;;;;;;;;;;5067352;28;20060;-61
2022/03/12 00:45:34;;;;;;;13.70;5.10;;;;;;;;;;5062233;28;20044;-58
2022/03/12 00:48:01;;;;;;;9.05;3.92;;;;;;;;;;5067788;28;20066;-56
2022/03/12 00:50:28;;;;;;;14.15;5.10;;;;;;;;;;5068195;28;20135;-59
2022/03/12 00:52:54;;;;;;;12.80;4.47;;;;;;;;;;5062776;28;20056;-53
2022/03/12 00:55:22;;;;;;;11.10;4.60;;;;;;;;;;5069784;28;20052;-57
2022/03/12 00:57:51;;;;;;;9.85;4.25;;;;;;;;;;5061987;28;20079;-53
2022/03/12 01:00:19;;;;;;;10.55;4.72;;;;;;;;;;5071656;28;20052;-56
2022/03/12 01:02:47;;;;;;;10.55;4.65;;;;;;;;;;5055163;28;20052;-49
2022/03/12 01:05:14;;;;;;;11.63;4.43;;;;;;;;;;5069345;28;20087;-50
2022/03/12 01:07:42;;;;;;;;;;;;;;;;;;5064141;28;20048;-52
2022/03/12 01:10:09;;;;;;;11.60;4.45;;;;;;;;;;5070530;28;19927;-51
2022/03/12 01:12:43;;;;;;;11.15;4.78;;;;;;;;;;5063313;28;20044;-55
2022/03/12 01:15:10;;;;;;;14.30;4.20;;;;;;;;;;5068126;28;20056;-49
2022/03/12 01:17:37;;;;;;;12.98;4.13;;;;;;;;;;5061093;28;20053;-49
2022/03/12 01:20:06;;;;;;;10.52;4.30;;;;;;;;;;5067989;28;20063;-56
2022/03/12 01:22:38;;;;;;;10.57;4.13;;;;;;;;;;5061019;28;20057;-55
2022/03/12 01:25:05;;;;;;;10.93;4.78;;;;;;;;;;5069233;28;20044;-55
2022/03/12 01:27:32;;;;;;;11.98;4.75;;;;;;;;;;5059602;28;20151;-57
2022/03/12 01:30:00;;;;;;;10.80;4.28;;;;;;;;;;5063487;28;20139;-60
2022/03/12 01:32:27;;;;;;;17.65;4.00;;;;;;;;;;5061558;28;20041;-58
2022/03/12 01:34:54;;;;;;;15.20;5.00;;;;;;;;;;5050265;28;20451;-58
2022/03/12 01:37:22;;;;;;;13.25;4.50;;;;;;;;;;5066412;28;20057;-54
2022/03/12 01:39:49;;;;;;;9.68;3.90;;;;;;;;;;5062124;28;20048;-54
2022/03/12 01:42:16;;;;;;;10.23;3.83;;;;;;;;;;5066747;28;20058;-56
2022/03/12 01:44:44;;;;;;;11.88;5.05;;;;;;;;;;5043745;28;20057;-55
2022/03/12 01:47:15;;;;;;;12.60;5.07;;;;;;;;;;5048484;28;20057;-57
2022/03/12 01:49:48;;;;;;;12.00;4.50;;;;;;;;;;5058112;28;20052;-55
2022/03/12 01:52:15;;;;;;;12.38;4.50;;;;;;;;;;5067908;28;20048;-55
2022/03/12 01:54:42;;;;;;;13.60;4.78;;;;;;;;;;5058653;28;20048;-58
2022/03/12 01:57:09;;;;;;;10.73;4.07;;;;;;;;;;5067794;28;20380;-59
2022/03/12 01:59:36;;;;;;;15.52;5.35;;;;;;;;;;5047969;28;20049;-57
2022/03/12 02:02:04;;;;;;;16.67;5.25;;;;;;;;;;5067619;28;20100;-57
2022/03/12 02:04:33;;;;;;;11.98;4.93;;;;;;;;;;5063390;28;20048;-55
2022/03/12 02:07:00;;;;;;;;;;;;;;;;;;5066262;28;20052;-61
2022/03/12 02:09:26;;;;;;;12.45;4.65;;;;;;;;;;5060074;28;19920;-60
2022/03/12 02:11:54;;;;;;;20.20;5.20;;;;;;;;;;5066321;28;20058;-56
2022/03/12 02:14:22;;;;;;;16.73;5.00;;;;;;;;;;5072709;28;20059;-58
2022/03/12 02:16:49;;;;;;;14.27;4.90;;;;;;;;;;5069570;28;20143;-58
2022/03/12 02:19:18;;;;;;;10.07;4.60;;;;;;;;;;5064121;28;20067;-60
2022/03/12 02:21:51;;;;;;;10.60;4.72;;;;;;;;;;5053425;28;20052;-59
2022/03/12 02:24:21;;;;;;;11.75;4.70;;;;;;;;;;5065473;28;20140;-52
2022/03/12 02:26:48;;;;;;;14.63;4.32;;;;;;;;;;5069522;28;20131;-53
2022/03/12 02:29:19;;;;;;;11.48;4.88;;;;;;;;;;5070057;28;20075;-53
2022/03/12 02:31:47;;;;;;;13.55;4.82;;;;;;;;;;5063832;28;20083;-52
2022/03/12 02:34:14;;;;;;;16.85;5.95;;;;;;;;;;5071220;28;20139;-53
2022/03/12 02:36:41;;;;;;;15.18;4.80;;;;;;;;;;5080121;28;20055;-56
2022/03/12 02:39:08;;;;;;;18.85;5.38;;;;;;;;;;5072555;28;20111;-54
2022/03/12 02:41:36;;;;;;;12.07;5.03;;;;;;;;;;5064082;28;20052;-58
2022/03/12 02:44:17;;;;;;;14.65;5.45;;;;;;;;;;5069933;28;20059;-56
2022/03/12 02:46:43;;;;;;;11.75;4.50;;;;;;;;;;5060527;28;20052;-56
2022/03/12 02:49:11;;;;;;;11.63;4.88;;;;;;;;;;5065873;28;20044;-56
2022/03/12 02:51:44;;;;;;;12.52;3.72;;;;;;;;;;5073708;28;20159;-56
2022/03/12 02:54:11;;;;;;;11.80;4.72;;;;;;;;;;5069300;28;20102;-57
2022/03/12 02:56:39;;;;;;;11.50;4.93;;;;;;;;;;5063901;28;20055;-54
2022/03/12 02:59:13;;;;;;;16.15;5.10;;;;;;;;;;5069336;28;20054;-56
2022/03/12 03:01:42;;;;;;;11.43;4.10;;;;;;;;;;5063536;28;20055;-55
2022/03/12 03:04:09;;;;;;;9.27;4.13;;;;;;;;;;5069243;28;20113;-54
2022/03/12 03:06:35;;;;;;;11.30;4.65;;;;;;;;;;5066229;28;20052;-52
2022/03/12 03:09:03;;;;;;;12.10;4.63;;;;;;;;;;5084671;28;20052;-54
2022/03/12 03:11:35;;;;;;;11.98;5.00;;;;;;;;;;5079666;28;20048;-53
2022/03/12 03:14:07;;;;;;;11.07;4.75;;;;;;;;;;5068516;28;20052;-54
2022/03/12 03:16:34;;;;;;;15.43;4.80;;;;;;;;;;5063852;28;20068;-54
2022/03/12 03:19:01;;;;;;;14.02;5.32;;;;;;;;;;5069586;28;20139;-50
2022/03/12 03:21:28;;;;;;;11.18;5.20;;;;;;;;;;5064378;28;20079;-50
2022/03/12 03:23:56;;;;;;;12.32;4.55;;;;;;;;;;5068134;28;20076;-52
2022/03/12 03:26:35;;;;;;;12.90;4.18;;;;;;;;;;5069215;28;20044;-51
2022/03/12 03:29:02;;;;;;;12.63;4.80;;;;;;;;;;5080749;28;20067;-53
2022/03/12 03:31:30;;;;;;;11.23;4.20;;;;;;;;;;5065943;28;20155;-51
2022/03/12 03:33:58;;;;;;;12.60;4.97;;;;;;;;;;5058344;28;20055;-51
2022/03/12 03:36:28;;;;;;;13.02;4.68;;;;;;;;;;5082067;28;20079;-50
2022/03/12 03:38:55;;;;;;;14.40;3.78;;;;;;;;;;5064352;28;20098;-54
2022/03/12 03:41:21;;;;;;;11.82;4.50;;;;;;;;;;5055759;28;20406;-59
2022/03/12 03:43:49;;;;;;;14.77;5.20;;;;;;;;;;5045211;28;20139;-52
2022/03/12 03:46:17;;;;;;;12.93;4.97;;;;;;;;;;5052583;28;20213;-52
2022/03/12 03:48:47;;;;;;;18.75;5.63;;;;;;;;;;5047531;28;20059;-59
2022/03/12 03:51:14;;;;;;;17.48;5.70;;;;;;;;;;5068429;28;20098;-61
2022/03/12 03:53:41;;;;;;;13.75;5.20;;;;;;;;;;5046132;28;20158;-52
2022/03/12 03:56:08;;;;;;;13.25;5.30;;;;;;;;;;5052359;28;20048;-57
2022/03/12 03:58:35;;;;;;;14.43;4.78;;;;;;;;;;5047413;28;20045;-53
2022/03/12 04:01:03;;;;;;;14.98;5.43;;;;;;;;;;5084324;28;20052;-54
2022/03/12 04:03:33;;;;;;;11.65;4.28;;;;;;;;;;5081058;28;20040;-56
2022/03/12 04:06:02;;;;;;;15.07;5.10;;;;;;;;;;5071730;28;20098;-55
2022/03/12 04:08:29;;;;;;;12.88;4.57;;;;;;;;;;5066146;28;20055;-52
2022/03/12 04:10:57;;;;;;;15.73;5.32;;;;;;;;;;5065048;28;20088;-52
2022/03/12 04:13:25;;;;;;;12.80;4.72;;;;;;;;;;5068717;28;20049;-48
2022/03/12 04:15:52;;;;;;;16.15;5.97;;;;;;;;;;5095587;28;20125;-51
2022/03/12 04:18:22;;;;;;;11.23;4.90;;;;;;;;;;5068590;28;20052;-55
2022/03/12 04:20:49;;;;;;;10.90;4.80;;;;;;;;;;5063029;28;20059;-55
2022/03/12 04:23:21;;;;;;;12.15;5.35;;;;;;;;;;5068222;28;20120;-57
2022/03/12 04:25:48;;;;;;;16.58;5.63;;;;;;;;;;5047149;28;20048;-51
2022/03/12 04:28:14;;;;;;;14.90;6.13;;;;;;;;;;5051792;28;20102;-55
2022/03/12 04:30:42;;;;;;;12.27;4.55;;;;;;;;;;5041655;28;20044;-55
2022/03/12 04:33:12;;;;;;;11.73;5.15;;;;;;;;;;5068114;28;20052;-53
2022/03/12 04:35:39;;;;;;;13.65;5.25;;;;;;;;;;5055059;28;20063;-57
2022/03/12 04:38:09;;;;;;;13.60;5.95;;;;;;;;;;5051267;28;20059;-53
2022/03/12 04:40:39;;;;;;;10.80;4.10;;;;;;;;;;5044226;28;20084;-55
2022/03/12 04:43:11;;;;;;;14.55;5.50;;;;;;;;;;5067804;28;20064;-53
2022/03/12 04:45:38;;;;;;;13.98;5.30;;;;;;;;;;5062267;28;20126;-51
2022/03/12 04:48:06;;;;;;;14.45;5.60;;;;;;;;;;5068037;28;20056;-55
2022/03/12 04:50:32;;;;;;;15.75;6.22;;;;;;;;;;5061994;28;20049;-55
2022/03/12 04:53:01;;;;;;;10.50;4.32;;;;;;;;;;5069157;28;20136;-55
2022/03/12 04:55:31;;;;;;;14.52;5.07;;;;;;;;;;5062703;28;20084;-58
2022/03/12 04:57:59;;;;;;;15.45;5.80;;;;;;;;;;5052097;28;20060;-52
2022/03/12 05:00:27;;;;;;;15.48;6.32;;;;;;;;;;5047311;28;20051;-54
2022/03/12 05:02:55;;;;;;;10.57;4.80;;;;;;;;;;5072719;28;20062;-53
2022/03/12 05:05:22;;;;;;;11.30;5.67;;;;;;;;;;5070739;28;20314;-51
2022/03/12 05:07:49;;;;;;;12.20;5.53;;;;;;;;;;5045908;28;20080;-56
2022/03/12 05:10:18;;;;;;;11.35;4.40;;;;;;;;;;5051444;28;20044;-56
2022/03/12 05:12:46;;;;;;;14.50;6.30;;;;;;;;;;5036917;28;20051;-53
2022/03/12 05:15:15;;;;;;;15.23;6.13;;;;;;;;;;5086025;28;20056;-53
2022/03/12 05:17:43;;;;;;;;;;;;;;;;;;5059053;28;20041;-53
2022/03/12 05:20:10;;;;;;;;;;;;;;;;;;5068668;28;19924;-53
2022/03/12 05:22:40;;;;;;;14.15;4.57;;;;;;;;;;5065354;28;19927;-54
2022/03/12 05:25:07;;;;;;;9.35;4.53;;;;;;;;;;5088582;28;20075;-57
2022/03/12 05:27:34;;;;;;;14.63;5.68;;;;;;;;;;5065852;28;20055;-53
2022/03/12 05:30:02;;;;;;;12.15;5.35;;;;;;;;;;5073084;28;20064;-53
2022/03/12 05:32:30;;;;;;;15.43;6.03;;;;;;;;;;5062161;28;20068;-51
2022/03/12 05:35:01;;;;;;;15.13;5.65;;;;;;;;;;5068148;28;20052;-53
2022/03/12 05:37:28;;;;;;;12.95;4.85;;;;;;;;;;5067475;28;20108;-53
2022/03/12 05:39:54;;;;;;;11.60;4.72;;;;;;;;;;5071707;28;20063;-53
2022/03/12 05:42:22;;;;;;;18.55;6.10;;;;;;;;;;5064860;28;20109;-57
2022/03/12 05:44:50;;;;;;;11.43;4.45;;;;;;;;;;5071030;28;20155;-55
2022/03/12 05:47:17;;;;;;;13.10;5.20;;;;;;;;;;5065306;28;20048;-50
2022/03/12 05:49:47;;;;;;;14.77;4.25;;;;;;;;;;5069507;28;20051;-53
2022/03/12 05:52:14;;;;;;;13.15;5.57;;;;;;;;;;5072361;28;20054;-54
2022/03/12 05:54:41;;;;;;;10.38;4.80;;;;;;;;;;5067237;28;20074;-55
2022/03/12 05:57:08;;;;;;;14.18;5.38;;;;;;;;;;5071132;28;20063;-56
2022/03/12 05:59:34;;;;;;;12.45;4.72;;;;;;;;;;5063505;28;20055;-56
2022/03/12 06:02:04;;;;;;;14.65;5.90;;;;;;;;;;5069576;28;20197;-55
2022/03/12 06:04:36;;;;;;;15.75;5.38;;;;;;;;;;5064304;28;20062;-56
2022/03/12 06:07:05;;;;;;;10.63;4.57;;;;;;;;;;5071428;28;20055;-55
2022/03/12 06:09:31;;;;;;;11.77;4.70;;;;;;;;;;5064048;28;20054;-54
2022/03/12 06:11:58;;;;;;;11.88;4.80;;;;;;;;;;5070410;28;20208;-54
2022/03/12 06:14:25;;;;;;;16.85;5.40;;;;;;;;;;5063202;28;20052;-53
2022/03/12 06:16:52;;;;;;;13.65;5.07;;;;;;;;;;5069678;28;20067;-50
2022/03/12 06:19:19;;;;;;;13.57;4.80;;;;;;;;;;5064016;28;20048;-52
2022/03/12 06:21:46;;;;;;;15.93;5.05;;;;;;;;;;5071852;28;20051;-53
2022/03/12 06:24:15;;;;;;;13.05;5.15;;;;;;;;;;5062049;28;20047;-52
2022/03/12 06:26:42;;;;;;;12.68;5.32;;;;;;;;;;5069531;28;20059;-53
2022/03/12 06:29:13;;;;;;;14.00;5.10;;;;;;;;;;5061568;28;20053;-51
2022/03/12 06:31:42;;;;;;;11.60;4.60;;;;;;;;;;5069295;28;20044;-53
2022/03/12 06:34:11;;;;;;;15.73;5.43;;;;;;;;;;5062236;28;20044;-53
2022/03/12 06:36:38;;;;;;;10.18;4.68;;;;;;;;;;5070571;28;20048;-55
2022/03/12 06:39:06;;;;;;;11.63;4.68;;;;;;;;;;5069449;28;20136;-51
2022/03/12 06:41:43;;;;;;;12.68;5.35;;;;;;;;;;5063946;28;20052;-51
2022/03/12 06:44:12;;;;;;;11.35;4.88;;;;;;;;;;5069918;28;20055;-53
2022/03/12 06:46:39;;;;;;;12.77;5.10;;;;;;;;;;5065574;28;20060;-56
2022/03/12 06:49:05;;;;;;;10.43;4.18;;;;;;;;;;5068594;28;20049;-53
2022/03/12 06:51:32;;;;;;;13.40;4.30;;;;;;;;;;5067844;28;20059;-56
2022/03/12 06:54:01;;;;;;;13.20;5.05;;;;;;;;;;5074083;28;20083;-55
2022/03/12 06:56:30;;;;;;;15.00;5.18;;;;;;;;;;5067493;28;20142;-54
2022/03/12 06:58:58;;;;;;;11.27;4.60;;;;;;;;;;5077435;28;20060;-57
2022/03/12 07:01:24;;;;;;;13.07;5.22;;;;;;;;;;5065550;28;20048;-57
2022/03/12 07:03:57;;;;;;;12.82;4.65;;;;;;;;;;5074775;28;20052;-56
2022/03/12 07:06:25;;;;;;;12.90;4.15;;;;;;;;;;5072289;28;20040;-51
2022/03/12 07:08:54;;;;;;;9.55;3.78;;;;;;;;;;5075054;28;20048;-53
2022/03/12 07:11:21;;;;;;;11.48;5.13;;;;;;;;;;5066908;28;20052;-53
2022/03/12 07:13:48;;;;;;;10.75;4.72;;;;;;;;;;5071661;28;20114;-49
2022/03/12 07:16:16;;;;;;;11.70;4.30;;;;;;;;;;5063454;28;20060;-51
2022/03/12 07:18:43;;;;;;;12.07;4.95;;;;;;;;;;5072543;28;20056;-56
2022/03/12 07:21:10;;;;;;;12.63;4.63;;;;;;;;;;5068974;28;20104;-51
2022/03/12 07:23:37;;;;;;;9.80;4.05;;;;;;;;;;5071467;28;20135;-53
2022/03/12 07:26:05;;;;;;;12.38;4.72;;;;;;;;;;5083762;28;20129;-54
2022/03/12 07:28:32;;;;;;;;;;;;;;;;;;5073618;28;20059;-52
2022/03/12 07:30:59;;;;;;;10.00;3.88;;;;;;;;;;5073898;28;19935;-57
2022/03/12 07:33:31;;;;;;;12.52;4.07;;;;;;;;;;5062686;28;20063;-53
2022/03/12 07:36:00;;;;;;;14.40;4.45;;;;;;;;;;5075121;28;20059;-52
2022/03/12 07:38:27;;;;;;;9.88;3.90;;;;;;;;;;5064254;28;20044;-55
2022/03/12 07:40:53;;;;;;;11.13;4.45;;;;;;;;;;5071699;28;20127;-49
2022/03/12 07:43:20;;;;;;;9.73;3.78;;;;;;;;;;5067022;28;20051;-49
2022/03/12 07:45:47;;;;;;;13.13;4.65;;;;;;;;;;5073707;28;20151;-51
2022/03/12 07:48:13;;;;;;;10.93;4.55;;;;;;;;;;5067042;28;20059;-49
2022/03/12 07:50:45;;;;;;;9.77;4.22;;;;;;;;;;5071500;28;20052;-54
2022/03/12 07:53:13;;;;;;;9.50;3.90;;;;;;;;;;5069380;28;20054;-54
2022/03/12 07:55:40;;;;;;;11.25;4.95;;;;;;;;;;5072071;28;20059;-56
2022/03/12 07:58:07;;;;;;;14.90;6.00;;;;;;;;;;5069223;28;20074;-52
2022/03/12 08:00:34;;;;;;;12.10;4.45;;;;;;;;;;5074212;28;20130;-56
2022/03/12 08:03:00;;;;;;;14.20;4.60;;;;;;;;;;5067923;28;20052;-56
2022/03/12 08:05:29;;;;;;;10.25;4.45;;;;;;;;;;5073505;28;20070;-53
2022/03/12 08:07:58;;;;;;;8.18;3.50;;;;;;;;;;5069664;28;20043;-53
2022/03/12 08:10:24;;;;;;;11.07;4.25;;;;;;;;;;5073441;28;20112;-53
2022/03/12 08:12:51;;;;;;;9.27;3.83;;;;;;;;;;5068195;28;20060;-49
2022/03/12 08:15:20;;;;;;;9.57;3.65;;;;;;;;;;5106130;27;20043;-49
2022/03/12 08:17:48;;;;;;;10.38;3.47;;;;;;;;;;5075451;28;20164;-54
2022/03/12 08:20:19;;;;;;;9.88;3.78;;;;;;;;;;5067974;28;20048;-52
2022/03/12 08:22:48;;;;;;;8.18;3.60;;;;;;;;;;5074125;28;20125;-50
2022/03/12 08:25:16;;;;;;;9.32;4.38;;;;;;;;;;5067234;28;20174;-56
2022/03/12 08:27:43;;;;;;;9.57;4.07;;;;;;;;;;5073537;28;20043;-51
2022/03/12 08:30:10;;;;;;;9.90;3.45;;;;;;;;;;5068935;28;20109;-55
2022/03/12 08:32:42;;;;;;;10.43;4.40;;;;;;;;;;5075215;28;20048;-57
2022/03/12 08:35:11;;;;;;;14.38;3.25;;;;;;;;;;5070358;28;20079;-54
2022/03/12 08:37:37;;;;;;;;;;;;;;;;;;5073375;28;20048;-54
2022/03/12 08:40:06;;;;;;;11.85;3.53;;;;;;;;;;5065214;28;19951;-52
2022/03/12 08:42:40;;;;;;;11.23;3.70;;;;;;;;;;5069626;28;20052;-54
2022/03/12 08:45:07;;;;;;;8.13;3.22;;;;;;;;;;5064398;28;20070;-51
2022/03/12 08:47:35;;;;;;;9.00;3.70;;;;;;;;;;5053505;28;20067;-55
2022/03/12 08:50:08;;;;;;;9.45;4.05;;;;;;;;;;5065502;28;20048;-54
2022/03/12 08:52:37;;;;;;;9.55;3.78;;;;;;;;;;5068091;28;20056;-53
2022/03/12 08:55:06;;;;;;;9.55;3.88;;;;;;;;;;5062239;28;20044;-58
2022/03/12 08:57:39;;;;;;;8.88;3.78;;;;;;;;;;5069845;28;20112;-55
2022/03/12 09:00:07;;;;;;;10.10;4.03;;;;;;;;;;5065995;28;20093;-56
2022/03/12 09:02:34;;;;;;;12.93;3.65;;;;;;;;;;5069467;28;20059;-54
2022/03/12 09:05:01;;;;;;;11.20;3.75;;;;;;;;;;5063962;28;20109;-57
2022/03/12 09:07:27;;;;;;;9.98;3.80;;;;;;;;;;5068927;28;20048;-54
2022/03/12 09:09:54;;;;;;;6.00;2.13;;;;;;;;;;5072464;28;20066;-57
2022/03/12 09:12:21;;;;;;;6.75;2.28;;;;;;;;;;5065564;28;20047;-58
2022/03/12 09:14:50;;;;;;;8.32;3.10;;;;;;;;;;5066108;28;20056;-55
2022/03/12 09:17:16;;;;;;;10.35;3.33;;;;;;;;;;5061056;28;20060;-54
2022/03/12 09:19:43;;;;;;;7.55;3.50;;;;;;;;;;5068759;28;20045;-62
2022/03/12 09:22:10;;;;;;;6.47;2.70;;;;;;;;;;5059415;28;20059;-55
2022/03/12 09:24:40;;;;;;;13.32;3.40;;;;;;;;;;5068177;28;20118;-55
2022/03/12 09:27:08;;;;;;;7.03;2.95;;;;;;;;;;5062388;28;20049;-52
2022/03/12 09:29:35;;;;;;;8.00;3.20;;;;;;;;;;5067818;28;20061;-54
2022/03/12 09:32:05;;;;;;;6.05;2.10;;;;;;;;;;5060907;28;20140;-51
2022/03/12 09:34:33;;;;;;;9.73;3.05;;;;;;;;;;5067072;28;20058;-58
2022/03/12 09:36:59;;;;;;;6.53;2.63;;;;;;;;;;5059425;28;20054;-51
2022/03/12 09:39:26;;;;;;;9.27;2.80;;;;;;;;;;5067461;28;20040;-49
2022/03/12 09:41:53;;;;;;;7.43;2.75;;;;;;;;;;5052340;28;20223;-51
2022/03/12 09:44:20;;;;;;;5.90;2.42;;;;;;;;;;5070468;28;20048;-54
2022/03/12 09:46:47;;;;;;;11.88;3.83;;;;;;;;;;5061219;28;20102;-54
2022/03/12 09:49:15;;;;;;;6.93;2.92;;;;;;;;;;5050243;28;20052;-52
2022/03/12 09:51:42;;;;;;;6.97;3.25;;;;;;;;;;5062300;28;20044;-50
2022/03/12 09:54:09;;;;;;;7.32;2.63;;;;;;;;;;5066757;28;20048;-52
2022/03/12 09:56:36;;;;;;;9.77;3.45;;;;;;;;;;5071247;28;20104;-52
2022/03/12 09:59:04;;;;;;;9.10;3.10;;;;;;;;;;5062236;28;20045;-53
2022/03/12 10:01:33;;;;;;;6.50;2.58;;;;;;;;;;5069745;28;20083;-50
2022/03/12 10:04:00;;;;;;;10.25;3.00;;;;;;;;;;5050825;28;20060;-56
2022/03/12 10:06:30;;;;;;;8.05;2.58;;;;;;;;;;5049895;28;20143;-57
2022/03/12 10:08:56;;;;;;;8.10;2.65;;;;;;;;;;5042895;28;20056;-55
2022/03/12 10:11:34;;;;;;;7.20;2.47;;;;;;;;;;5066947;28;20048;-54
2022/03/12 10:14:00;;;;;;;6.22;2.67;;;;;;;;;;5060421;28;20052;-54
2022/03/12 10:16:29;;;;;;;8.98;3.28;;;;;;;;;;5065899;28;20072;-54
2022/03/12 10:18:55;;;;;;;;;;;;;;;;;;5060934;28;20056;-52
2022/03/12 10:21:23;;;;;;;14.48;4.55;;;;;;;;;;5065533;28;19925;-54
2022/03/12 10:24:02;;;;;;;6.60;2.38;;;;;;;;;;5060293;28;20082;-50
2022/03/12 10:26:30;;;;;;;5.57;2.63;;;;;;;;;;5066322;28;20056;-52
2022/03/12 10:28:56;;;;;;;8.15;2.55;;;;;;;;;;5060048;28;20040;-53
2022/03/12 10:31:23;;;;;;;7.43;3.10;;;;;;;;;;5065450;28;20056;-50
2022/03/12 10:33:50;;;;;;;8.93;3.30;;;;;;;;;;5060535;28;20044;-52
2022/03/12 10:36:18;;;;;;;8.23;3.03;;;;;;;;;;5065932;28;20091;-57
2022/03/12 10:38:46;;;;;;;10.82;2.60;;;;;;;;;;5060862;28;20086;-53
2022/03/12 10:41:14;;;;;;;12.43;3.17;;;;;;;;;;5066500;28;20110;-57
2022/03/12 10:43:46;;;;;;;9.88;3.40;;;;;;;;;;5062170;28;20044;-50
2022/03/12 10:46:15;;;;;;;8.23;3.10;;;;;;;;;;5061475;28;20040;-55
2022/03/12 10:48:42;;;;;;;9.15;3.03;;;;;;;;;;5090680;28;20063;-55
2022/03/12 10:51:09;;;;;;;6.68;2.30;;;;;;;;;;5058418;28;20090;-56
2022/03/12 10:53:37;;;;;;;10.57;2.63;;;;;;;;;;5063384;28;20133;-55
2022/03/12 10:56:06;;;;;;;10.57;2.55;;;;;;;;;;5058516;28;20048;-54
2022/03/12 10:58:34;;;;;;;7.15;2.65;;;;;;;;;;5064897;28;20217;-52
2022/03/12 11:01:01;;;;;;;9.38;2.75;;;;;;;;;;5058504;28;20075;-58
2022/03/12 11:03:30;;;;;;;8.82;2.70;;;;;;;;;;5062815;28;20056;-60
2022/03/12 11:05:57;;;;;;;9.63;3.10;;;;;;;;;;5056515;28;20079;-54
2022/03/12 11:08:24;;;;;;;4.68;1.75;;;;;;;;;;5064492;28;20059;-58
2022/03/12 11:10:52;;;;;;;6.38;2.40;;;;;;;;;;5057159;28;20118;-58
2022/03/12 11:13:27;;;;;;;9.95;2.65;;;;;;;;;;5062715;28;20052;-54
2022/03/12 11:16:14;;;;;;;6.40;2.17;;;;;;;;;;5073879;28;20063;-59
2022/03/12 11:18:59;;;;;;;7.43;2.63;;;;;;;;;;5063823;28;20117;-56
2022/03/12 11:21:27;;;;;;;9.52;2.35;;;;;;;;;;5056321;28;20072;-56
2022/03/12 11:23:59;;;;;;;6.68;2.38;;;;;;;;;;5063099;28;20056;-55
2022/03/12 11:26:27;;;;;;;6.95;2.35;;;;;;;;;;5059718;28;20123;-61
2022/03/12 11:28:56;;;;;;;12.23;3.17;;;;;;;;;;5065807;28;20059;-53
2022/03/12 11:31:38;;;;;;;6.47;2.80;;;;;;;;;;5060343;28;20121;-52
2022/03/12 11:34:19;;;;;;;9.30;2.10;;;;;;;;;;5063791;28;20049;-54
2022/03/12 11:36:46;;;;;;;5.75;1.98;;;;;;;;;;5090530;27;20088;-57
2022/03/12 11:39:17;;;;;;;6.97;1.73;;;;;;;;;;5068762;28;20052;-56
2022/03/12 11:42:00;;;;;;;5.13;2.03;;;;;;;;;;5044665;28;20044;-58
2022/03/12 11:44:29;;;;;;;6.88;1.95;;;;;;;;;;5052454;28;20109;-60
2022/03/12 11:46:56;;;;;;;7.35;1.58;;;;;;;;;;5044248;28;20052;-58
2022/03/12 11:49:27;;;;;;;4.55;1.80;;;;;;;;;;5061500;28;20060;-52
2022/03/12 11:51:56;;;;;;;4.53;1.75;;;;;;;;;;5060283;28;20060;-57
2022/03/12 11:54:26;;;;;;;6.95;1.92;;;;;;;;;;5081142;28;20055;-54
2022/03/12 11:56:59;;;;;;;6.18;2.05;;;;;;;;;;5053076;28;20047;-54
2022/03/12 11:59:34;;;;;;;9.68;1.88;;;;;;;;;;5075457;28;20057;-55
2022/03/12 12:02:05;;;;;;;6.80;2.28;;;;;;;;;;5081168;28;20100;-56
2022/03/12 12:04:35;;;;;;;8.52;2.20;;;;;;;;;;5078435;28;20048;-56
2022/03/12 12:07:02;;;;;;;5.68;1.75;;;;;;;;;;5055065;28;20040;-55
2022/03/12 12:09:31;;;;;;;4.90;1.95;;;;;;;;;;5071708;28;20055;-54
2022/03/12 12:12:00;;;;;;;7.22;1.98;;;;;;;;;;5079908;28;20047;-57
2022/03/12 12:14:27;;;;;;;3.50;1.70;;;;;;;;;;5070593;28;20052;-54
2022/03/12 12:16:56;;;;;;;3.17;1.48;;;;;;;;;;5071510;28;20134;-57
2022/03/12 12:19:23;;;;;;;7.05;2.30;;;;;;;;;;5057699;28;20144;-55
2022/03/12 12:21:52;;;;;;;8.02;1.88;;;;;;;;;;5071508;28;20063;-54
2022/03/12 12:24:27;;;;;;;8.23;1.80;;;;;;;;;;5065735;28;20056;-54
2022/03/12 12:26:58;;;;;;;5.25;2.10;;;;;;;;;;5072185;28;20060;-54
2022/03/12 12:29:35;;;;;;;4.63;1.67;;;;;;;;;;5067079;28;20048;-54
2022/03/12 12:32:03;;;;;;;5.68;2.03;;;;;;;;;;5070876;28;20060;-53
2022/03/12 12:34:31;;;;;;;6.07;1.98;;;;;;;;;;5099227;28;20052;-51
2022/03/12 12:37:00;;;;;;;5.60;1.73;;;;;;;;;;5070893;28;20052;-57
2022/03/12 12:39:27;;;;;;;5.45;2.00;;;;;;;;;;5065966;28;20048;-57
2022/03/12 12:41:56;;;;;;;4.55;1.70;;;;;;;;;;5071350;28;20059;-56
2022/03/12 12:44:44;;;;;;;4.57;1.70;;;;;;;;;;5065083;28;20147;-56
2022/03/12 12:47:17;;;;;;;5.13;1.60;;;;;;;;;;5065173;28;20048;-55
2022/03/12 12:49:51;;;;;;;4.68;1.70;;;;;;;;;;5065359;28;20129;-54
2022/03/12 12:52:19;;;;;;;7.63;1.85;;;;;;;;;;5071334;28;20155;-55
2022/03/12 12:54:59;;;;;;;6.03;1.80;;;;;;;;;;5065311;28;20051;-54
2022/03/12 12:57:39;;;;;;;4.25;1.80;;;;;;;;;;5071368;28;20052;-57
2022/03/12 13:00:24;;;;;;;8.32;1.70;;;;;;;;;;5067264;28;20394;-58
2022/03/12 13:02:52;;;;;;;8.13;1.67;;;;;;;;;;5072168;28;20044;-55
2022/03/12 13:05:19;;;;;;;5.57;1.77;;;;;;;;;;5065765;28;20058;-58
2022/03/12 13:07:59;;;;;;;7.80;1.70;;;;;;;;;;5070967;28;20058;-58
2022/03/12 13:10:26;;;;;;;6.43;1.77;;;;;;;;;;5099248;28;20044;-56
2022/03/12 13:13:08;;;;;;;5.55;1.35;;;;;;;;;;5071495;28;20131;-58
2022/03/12 13:15:37;;;;;;;4.47;1.30;;;;;;;;;;5045767;28;20045;-59
2022/03/12 13:18:12;;;;;;;4.30;1.63;;;;;;;;;;5051313;28;20049;-58
2022/03/12 13:20:42;;;;;;;4.53;1.40;;;;;;;;;;5045615;28;20071;-60
2022/03/12 13:23:11;;;;;;;5.47;1.70;;;;;;;;;;5051595;28;20049;-61
2022/03/12 13:25:48;;;;;;;4.82;1.40;;;;;;;;;;5044896;28;20045;-60
2022/03/12 13:28:35;;;;;;;5.35;1.35;;;;;;;;;;5081394;28;20052;-57
2022/03/12 13:31:03;;;;;;;5.55;1.40;;;;;;;;;;5044999;28;20056;-57
2022/03/12 13:33:29;;;;;;;5.47;1.30;;;;;;;;;;5050461;28;20079;-58
2022/03/12 13:35:56;;;;;;;6.82;1.70;;;;;;;;;;5035374;28;20063;-59
2022/03/12 13:38:25;;;;;;;6.60;1.52;;;;;;;;;;5042246;28;20080;-57
2022/03/12 13:40:51;;;;;;;;;;;;;;;;;;5045469;28;20056;-56
2022/03/12 13:43:18;;;;;;;6.80;1.80;;;;;;;;;;5068683;28;19954;-60
2022/03/12 13:45:47;;;;;;;5.60;1.50;;;;;;;;;;5047711;28;20049;-58
2022/03/12 13:48:13;;;;;;;5.38;1.88;;;;;;;;;;5051508;28;20056;-60
2022/03/12 13:50:40;;;;;;;3.80;1.20;;;;;;;;;;5052418;28;20056;-59
2022/03/12 13:53:08;;;;;;;5.50;1.30;;;;;;;;;;5048408;28;20114;-58
2022/03/12 13:55:36;;;;;;;4.45;1.20;;;;;;;;;;5051442;28;20053;-61
2022/03/12 13:58:04;;;;;;;3.58;1.55;;;;;;;;;;5044805;28;20151;-55
2022/03/12 14:00:35;;;;;;;3.85;1.38;;;;;;;;;;5051894;28;20056;-53
2022/03/12 14:03:02;;;;;;;3.35;1.27;;;;;;;;;;5045478;28;20060;-58
2022/03/12 14:05:30;;;;;;;6.57;1.38;;;;;;;;;;5053243;28;20059;-61
2022/03/12 14:07:57;;;;;;;4.57;1.55;;;;;;;;;;5043571;28;20155;-56
2022/03/12 14:10:24;;;;;;;5.88;1.45;;;;;;;;;;5052166;28;20059;-56
2022/03/12 14:12:59;;;;;;;5.50;1.60;;;;;;;;;;5045726;28;20059;-58
2022/03/12 14:15:27;;;;;;;4.20;1.48;;;;;;;;;;5048602;28;20100;-56
2022/03/12 14:17:54;;;;;;;6.65;1.40;;;;;;;;;;5040473;28;20068;-56
2022/03/12 14:20:20;;;;;;;8.57;1.38;;;;;;;;;;5047153;28;20057;-57
2022/03/12 14:22:52;;;;;;;6.00;1.60;;;;;;;;;;5043930;28;20055;-56
2022/03/12 14:25:26;;;;;;;4.38;1.33;;;;;;;;;;5048261;28;20056;-56
2022/03/12 14:27:55;;;;;;;9.35;1.52;;;;;;;;;;5044113;28;20053;-58
2022/03/12 14:30:25;;;;;;;7.75;1.45;;;;;;;;;;5048915;28;20044;-56
2022/03/12 14:32:52;;;;;;;7.72;1.40;;;;;;;;;;5042519;28;20080;-57
2022/03/12 14:35:20;;;;;;;8.52;1.55;;;;;;;;;;5052707;28;20055;-53
2022/03/12 14:37:47;;;;;;;4.38;1.40;;;;;;;;;;5047144;28;20056;-55
2022/03/12 14:40:14;;;;;;;4.10;1.23;;;;;;;;;;5048962;28;20055;-60
2022/03/12 14:42:45;;;;;;;3.10;1.05;;;;;;;;;;5035707;28;20056;-58
2022/03/12 14:45:13;;;;;;;6.55;1.52;;;;;;;;;;5042196;28;20106;-59
2022/03/12 14:47:41;;;;;;;4.75;1.33;;;;;;;;;;5048953;28;20053;-57